Time;durP1;ratioP1;P1;durP2;ratioP2;P2;SDS_P1;SDS_P2;PMS_P1;PMS_P2;Temp;Humidity;BMP_temperature;BMP_pressure;BME280_temperature;BME280_humidity;BME280_pressure;Samples;Min_cycle;Max_cycle;Signal;HPM_P1;HPM_P2
2021/01/06 00:02:04;;;;;;;30.92;16.27;;;3.50;99.90;;;;;;4995283;28;20058;-77
2021/01/06 00:04:39;;;;;;;31.73;16.55;;;3.50;99.90;;;;;;4996098;28;20054;-78
2021/01/06 00:07:06;;;;;;;31.70;16.80;;;3.50;99.90;;;;;;4998901;28;20061;-77
2021/01/06 00:09:33;;;;;;;33.20;16.13;;;3.50;99.90;;;;;;4997438;28;20050;-79
2021/01/06 00:12:00;;;;;;;34.55;17.27;;;3.50;99.90;;;;;;4996025;28;20058;-79
2021/01/06 00:14:34;;;;;;;34.22;16.90;;;3.50;99.90;;;;;;4996554;28;20050;-78
2021/01/06 00:17:13;;;;;;;31.88;17.45;;;3.60;99.90;;;;;;4995099;28;20124;-80
2021/01/06 00:19:42;;;;;;;32.95;16.70;;;3.60;99.90;;;;;;4997317;28;20458;-79
2021/01/06 00:22:12;;;;;;;35.38;17.85;;;3.60;99.90;;;;;;4996958;28;20490;-81
2021/01/06 00:24:39;;;;;;;36.47;17.52;;;3.70;99.90;;;;;;4998809;28;20058;-79
2021/01/06 00:27:06;;;;;;;34.13;19.08;;;3.70;99.90;;;;;;4997371;28;20065;-81
2021/01/06 00:29:32;;;;;;;36.75;17.35;;;3.80;99.90;;;;;;4995834;28;20050;-77
2021/01/06 00:31:59;;;;;;;34.92;19.08;;;3.60;99.90;;;;;;4997930;28;20578;-81
2021/01/06 00:34:26;;;;;;;41.80;19.25;;;3.60;99.90;;;;;;4998526;28;20046;-79
2021/01/06 00:36:54;;;;;;;43.88;19.88;;;3.70;99.90;;;;;;4999629;28;20109;-81
2021/01/06 00:39:26;;;;;;;41.08;19.80;;;3.80;99.90;;;;;;4999598;28;20065;-78
2021/01/06 00:41:59;;;;;;;39.20;19.92;;;3.90;99.90;;;;;;4994374;28;20068;-78
2021/01/06 00:44:28;;;;;;;40.42;20.73;;;3.90;99.90;;;;;;4995067;28;20054;-77
2021/01/06 00:46:55;;;;;;;48.30;21.90;;;3.80;99.90;;;;;;4997538;28;20166;-77
2021/01/06 00:49:24;;;;;;;45.33;23.20;;;3.80;99.90;;;;;;4997121;28;20081;-79
2021/01/06 00:51:51;;;;;;;49.42;23.33;;;3.80;99.90;;;;;;5019188;23;20133;-79
2021/01/06 00:54:18;;;;;;;48.58;22.77;;;3.80;99.90;;;;;;5009007;28;20070;-79
2021/01/06 00:56:44;;;;;;;46.20;23.33;;;3.80;99.90;;;;;;5019650;28;20076;-79
2021/01/06 00:59:11;;;;;;;46.28;22.60;;;3.90;99.90;;;;;;5019854;28;20514;-79
2021/01/06 01:01:37;;;;;;;50.63;23.52;;;3.90;99.90;;;;;;5015939;28;20061;-79
2021/01/06 01:04:04;;;;;;;50.50;22.58;;;3.90;99.90;;;;;;5018709;28;20084;-79
2021/01/06 01:06:32;;;;;;;46.67;22.55;;;3.90;99.90;;;;;;5017926;28;20104;-79
2021/01/06 01:09:00;;;;;;;47.63;22.95;;;3.90;99.90;;;;;;5022885;28;20085;-80
2021/01/06 01:11:27;;;;;;;45.72;22.75;;;3.90;99.90;;;;;;5018508;28;20483;-81
2021/01/06 01:13:55;;;;;;;52.05;22.88;;;3.80;99.90;;;;;;5017682;28;20054;-79
2021/01/06 01:16:22;;;;;;;49.92;21.35;;;3.80;99.90;;;;;;5013931;28;20075;-78
2021/01/06 01:18:49;;;;;;;46.92;22.50;;;3.80;99.90;;;;;;5014200;28;20600;-80
2021/01/06 01:21:18;;;;;;;46.53;21.88;;;3.90;99.90;;;;;;5014131;28;20089;-78
2021/01/06 01:23:45;;;;;;;50.72;23.08;;;3.90;99.90;;;;;;5015135;28;20053;-78
2021/01/06 01:26:12;;;;;;;47.63;21.52;;;3.90;99.90;;;;;;5013606;28;20514;-78
2021/01/06 01:28:39;;;;;;;47.03;21.85;;;4.00;99.90;;;;;;5013373;28;20081;-79
2021/01/06 01:31:05;;;;;;;43.03;21.85;;;4.00;99.90;;;;;;5013106;28;20084;-76
2021/01/06 01:33:31;;;;;;;45.88;21.67;;;4.00;99.90;;;;;;5013244;28;20068;-78
2021/01/06 01:35:58;;;;;;;45.58;22.10;;;3.90;99.90;;;;;;5013574;28;20133;-79
2021/01/06 01:38:27;;;;;;;40.00;20.90;;;3.90;99.90;;;;;;5013897;28;20137;-79
2021/01/06 01:41:01;;;;;;;39.72;19.45;;;4.00;99.90;;;;;;5013374;28;20128;-79
2021/01/06 01:43:29;;;;;;;36.13;18.90;;;4.00;99.90;;;;;;5012143;28;20128;-78
2021/01/06 01:46:32;;;;;;;36.38;19.15;;;4.00;99.90;;;;;;5012563;28;20133;-78
2021/01/06 01:49:01;;;;;;;38.70;19.58;;;3.90;99.90;;;;;;5012951;28;20070;-79
2021/01/06 01:51:36;;;;;;;38.22;18.38;;;4.00;99.90;;;;;;5012728;28;20133;-79
2021/01/06 01:54:05;;;;;;;33.55;17.42;;;4.00;99.90;;;;;;5013504;28;20502;-79
2021/01/06 01:56:38;;;;;;;34.10;17.50;;;4.00;99.90;;;;;;5014045;28;20140;-79
2021/01/06 01:59:10;;;;;;;34.70;17.30;;;4.00;99.90;;;;;;5013383;28;20134;-79
2021/01/06 02:01:38;;;;;;;33.60;16.80;;;4.00;99.90;;;;;;5013239;28;20129;-80
2021/01/06 02:04:11;;;;;;;31.67;17.35;;;4.00;99.90;;;;;;5014089;28;20188;-79
2021/01/06 02:06:42;;;;;;;30.85;16.52;;;4.00;99.90;;;;;;5015127;28;20601;-79
2021/01/06 02:09:14;;;;;;;32.50;18.10;;;4.00;99.90;;;;;;5015495;28;20085;-80
2021/01/06 02:11:43;;;;;;;32.03;18.03;;;4.00;99.90;;;;;;5015277;28;20077;-79
2021/01/06 02:14:14;;;;;;;33.38;18.83;;;4.00;99.90;;;;;;5015042;28;20132;-79
2021/01/06 02:16:48;;;;;;;33.92;17.80;;;4.00;99.90;;;;;;5020796;28;20073;-80
2021/01/06 02:19:18;;;;;;;32.17;18.13;;;4.10;99.90;;;;;;5024259;28;20057;-79
2021/01/06 02:21:46;;;;;;;35.88;18.40;;;4.10;99.90;;;;;;5021436;28;20526;-78
2021/01/06 02:24:13;;;;;;;33.63;17.85;;;4.10;99.90;;;;;;5020214;28;20143;-78
2021/01/06 02:26:40;;;;;;;34.70;18.65;;;4.10;99.90;;;;;;5020395;28;20457;-79
2021/01/06 02:29:06;;;;;;;30.95;17.33;;;4.10;99.90;;;;;;5021328;28;20049;-79
2021/01/06 02:31:33;;;;;;;32.75;17.73;;;4.00;99.90;;;;;;5018483;28;20082;-79
2021/01/06 02:33:59;;;;;;;36.50;17.63;;;4.10;99.90;;;;;;5019556;28;20053;-80
2021/01/06 02:36:26;;;;;;;33.05;17.27;;;4.10;99.90;;;;;;5021774;28;20482;-79
2021/01/06 02:38:53;;;;;;;34.13;17.35;;;4.10;99.90;;;;;;5017178;28;20505;-80
2021/01/06 02:41:20;;;;;;;31.02;18.10;;;4.10;99.90;;;;;;5016930;28;20057;-78
2021/01/06 02:43:49;;;;;;;35.45;18.08;;;4.10;99.90;;;;;;5017795;28;20141;-78
2021/01/06 02:46:16;;;;;;;35.08;18.02;;;4.10;99.90;;;;;;5016919;28;20481;-78
2021/01/06 02:48:43;;;;;;;35.97;18.27;;;4.20;99.90;;;;;;5015982;28;20124;-78
2021/01/06 02:51:22;;;;;;;31.98;17.23;;;4.20;99.90;;;;;;5015284;28;20085;-80
2021/01/06 02:53:53;;;;;;;29.77;16.58;;;4.20;99.90;;;;;;5015654;28;20092;-79
2021/01/06 02:56:21;;;;;;;33.38;18.17;;;4.20;99.90;;;;;;5016076;28;20105;-79
2021/01/06 02:58:51;;;;;;;34.05;17.70;;;4.30;99.90;;;;;;5016109;28;20089;-80
2021/01/06 03:01:21;;;;;;;32.50;17.77;;;4.20;99.90;;;;;;5015561;28;20050;-80
2021/01/06 03:03:51;;;;;;;30.67;16.95;;;4.30;99.90;;;;;;5018518;28;20054;-80
2021/01/06 03:06:23;;;;;;;30.50;16.85;;;4.30;99.90;;;;;;5019548;28;20113;-80
2021/01/06 03:08:50;;;;;;;30.48;17.02;;;4.20;99.90;;;;;;5019372;28;20128;-80
2021/01/06 03:11:16;;;;;;;31.42;17.45;;;4.20;99.90;;;;;;5019107;28;20046;-81
2021/01/06 03:13:44;;;;;;;30.02;16.55;;;4.20;99.90;;;;;;5019279;28;20085;-79
2021/01/06 03:16:10;;;;;;;30.00;16.40;;;4.20;99.90;;;;;;5019350;28;20132;-79
2021/01/06 03:18:36;;;;;;;29.83;16.05;;;4.30;99.90;;;;;;5017761;28;20132;-79
2021/01/06 03:21:07;;;;;;;28.60;16.30;;;4.30;99.90;;;;;;5020552;28;20105;-80
2021/01/06 03:23:38;;;;;;;29.27;16.63;;;4.20;99.90;;;;;;5018880;28;20281;-80
2021/01/06 03:26:07;;;;;;;31.80;16.90;;;4.20;99.90;;;;;;5018296;28;20086;-80
2021/01/06 03:28:36;;;;;;;28.98;16.98;;;4.20;99.90;;;;;;5018552;28;20132;-80
2021/01/06 03:31:05;;;;;;;29.42;16.58;;;4.30;99.90;;;;;;5018465;28;20133;-80
2021/01/06 03:33:35;;;;;;;28.98;16.02;;;4.30;99.90;;;;;;5018516;28;20057;-80
2021/01/06 03:36:05;;;;;;;28.58;16.52;;;4.30;99.90;;;;;;5018742;28;20136;-81
2021/01/06 03:38:34;;;;;;;33.60;16.73;;;4.30;99.90;;;;;;5019205;28;20077;-81
2021/01/06 03:41:01;;;;;;;28.83;16.45;;;4.40;99.90;;;;;;5018839;28;20124;-81
2021/01/06 03:43:30;;;;;;;28.83;15.80;;;4.40;99.90;;;;;;5018511;28;20136;-79
2021/01/06 03:46:01;;;;;;;28.00;15.40;;;4.40;99.90;;;;;;5019047;28;20046;-81
2021/01/06 03:48:35;;;;;;;27.15;16.00;;;4.40;99.90;;;;;;5019174;28;20049;-79
2021/01/06 03:51:14;;;;;;;26.77;15.90;;;4.50;99.90;;;;;;5019558;28;20125;-78
2021/01/06 03:53:43;;;;;;;27.40;15.57;;;4.40;99.90;;;;;;5019901;28;20526;-81
2021/01/06 03:56:15;;;;;;;24.23;15.05;;;4.50;99.90;;;;;;5017897;28;20046;-78
2021/01/06 03:58:49;;;;;;;27.38;15.15;;;4.50;99.90;;;;;;5016836;28;20057;-80
2021/01/06 04:01:37;;;;;;;25.85;15.05;;;4.50;99.90;;;;;;5016726;28;20136;-80
2021/01/06 04:04:12;;;;;;;25.48;15.20;;;4.40;99.90;;;;;;5017495;28;20057;-79
2021/01/06 04:06:39;;;;;;;25.20;15.13;;;4.40;99.90;;;;;;5018297;28;20068;-80
2021/01/06 04:09:16;;;;;;;25.98;15.27;;;4.40;99.90;;;;;;5018636;28;20092;-79
2021/01/06 04:11:42;;;;;;;25.40;15.25;;;4.40;99.90;;;;;;5017633;28;20085;-81
2021/01/06 04:14:10;;;;;;;24.10;14.85;;;4.50;99.90;;;;;;5007548;28;20110;-81
2021/01/06 04:16:36;;;;;;;23.45;14.52;;;4.60;99.90;;;;;;4998052;28;20121;-81
2021/01/06 04:27:00;;;;;;;27.10;15.30;;;4.70;99.90;;;;;;4734054;29;20471;-80
2021/01/06 04:43:33;;;;;;;26.73;16.33;;;4.80;99.90;;;;;;4706734;30;20049;-82
2021/01/06 04:46:11;;;;;;;;;;;4.70;99.90;;;;;;4767804;29;20093;-82
2021/01/06 04:48:51;;;;;;;29.63;16.27;;;4.60;99.90;;;;;;4973755;28;20056;-81
2021/01/06 04:51:41;;;;;;;27.73;16.48;;;4.60;99.90;;;;;;5018184;28;20069;-81
2021/01/06 04:54:36;;;;;;;31.00;16.42;;;4.60;99.90;;;;;;5017656;28;20113;-81
2021/01/06 04:57:21;;;;;;;27.20;15.85;;;4.60;99.90;;;;;;5020281;28;20518;-81
2021/01/06 05:00:02;;;;;;;30.83;17.23;;;4.60;99.90;;;;;;5025220;28;20058;-81
2021/01/06 05:02:58;;;;;;;26.65;16.73;;;4.60;99.90;;;;;;5018920;28;20054;-79
2021/01/06 05:05:36;;;;;;;26.90;16.30;;;4.60;99.90;;;;;;5017828;28;20135;-81
2021/01/06 05:08:15;;;;;;;30.95;17.40;;;4.60;99.90;;;;;;5017566;28;20093;-81
2021/01/06 05:10:45;;;;;;;26.95;15.90;;;4.50;99.90;;;;;;5017292;28;20140;-80
2021/01/06 05:13:23;;;;;;;27.45;16.25;;;4.50;99.90;;;;;;5015609;28;20483;-81
2021/01/06 05:15:55;;;;;;;28.15;14.57;;;4.50;99.90;;;;;;5017159;28;20092;-82
2021/01/06 05:18:22;;;;;;;25.50;14.97;;;4.50;99.90;;;;;;5017279;28;20061;-83
2021/01/06 05:20:49;;;;;;;20.52;12.23;;;4.40;99.90;;;;;;5016870;28;20343;-82
2021/01/06 05:23:18;;;;;;;22.77;12.40;;;4.30;99.90;;;;;;5016586;28;20133;-80
2021/01/06 05:25:45;;;;;;;19.45;12.45;;;4.40;99.90;;;;;;5017077;28;20495;-82
2021/01/06 05:28:15;;;;;;;24.23;12.88;;;4.40;99.90;;;;;;4998124;28;20510;-81
2021/01/06 05:30:42;;;;;;;22.52;13.50;;;4.40;99.90;;;;;;4991743;28;20517;-81
2021/01/06 05:33:12;;;;;;;22.25;12.43;;;4.40;99.90;;;;;;4997562;28;20129;-80
2021/01/06 05:35:42;;;;;;;22.42;13.18;;;4.50;99.90;;;;;;4990536;28;20043;-81
2021/01/06 05:38:09;;;;;;;23.50;13.40;;;4.50;99.90;;;;;;4994842;28;20505;-80
2021/01/06 05:40:37;;;;;;;23.75;13.98;;;4.50;99.90;;;;;;4981583;28;20054;-81
2021/01/06 05:43:06;;;;;;;25.25;13.82;;;4.50;99.90;;;;;;4995275;28;20047;-80
2021/01/06 05:45:45;;;;;;;24.92;13.88;;;4.50;99.90;;;;;;4996765;28;20074;-80
2021/01/06 05:48:17;;;;;;;23.17;13.80;;;4.60;99.90;;;;;;4996807;28;20081;-80
2021/01/06 05:50:53;;;;;;;25.63;13.77;;;4.60;99.90;;;;;;5002856;28;20149;-81
2021/01/06 05:53:28;;;;;;;18.83;11.70;;;4.70;99.90;;;;;;5003452;28;20054;-80
2021/01/06 05:55:54;;;;;;;20.25;12.70;;;4.50;99.90;;;;;;5003350;28;20104;-80
2021/01/06 05:58:27;;;;;;;18.88;11.90;;;4.40;99.90;;;;;;5003212;28;20046;-81
2021/01/06 06:00:59;;;;;;;;;;;4.30;99.90;;;;;;5003770;28;20050;-80
2021/01/06 06:03:50;;;;;;;21.98;11.73;;;4.30;99.90;;;;;;5000217;28;20016;-79
2021/01/06 06:06:56;;;;;;;19.98;12.20;;;4.30;99.90;;;;;;4999949;28;20381;-80
2021/01/06 06:09:44;;;;;;;22.05;12.25;;;4.30;99.90;;;;;;4963646;29;20079;-79
2021/01/06 06:12:31;;;;;;;23.90;13.07;;;4.30;99.90;;;;;;5006398;28;20081;-81
2021/01/06 06:15:32;;;;;;;19.60;12.15;;;4.40;99.90;;;;;;5003157;28;20545;-80
2021/01/06 06:18:25;;;;;;;18.80;11.93;;;4.30;99.90;;;;;;5001294;28;20526;-80
2021/01/06 06:21:01;;;;;;;19.02;11.82;;;4.30;99.90;;;;;;4999001;28;20134;-81
2021/01/06 06:24:09;;;;;;;18.92;12.23;;;4.30;99.90;;;;;;5000550;28;20058;-80
2021/01/06 06:26:45;;;;;;;23.35;13.32;;;4.30;99.90;;;;;;4996898;28;20141;-79
2021/01/06 06:29:20;;;;;;;23.13;13.80;;;4.30;99.90;;;;;;4998085;28;20101;-80
2021/01/06 06:31:50;;;;;;;21.88;13.75;;;4.40;99.90;;;;;;4994722;28;20054;-77
2021/01/06 06:34:25;;;;;;;25.67;14.38;;;4.30;99.90;;;;;;4981841;28;20153;-81
2021/01/06 06:37:07;;;;;;;22.95;14.43;;;4.30;99.90;;;;;;4998343;28;20050;-79
2021/01/06 06:39:38;;;;;;;22.92;13.68;;;4.30;99.90;;;;;;4999529;28;20542;-81
2021/01/06 06:42:15;;;;;;;26.00;15.25;;;4.30;99.90;;;;;;4997885;28;20141;-79
2021/01/06 06:44:53;;;;;;;25.10;13.98;;;4.30;99.90;;;;;;4995853;28;20057;-79
2021/01/06 06:47:22;;;;;;;22.80;13.85;;;4.20;99.90;;;;;;4995736;28;20106;-78
2021/01/06 06:50:21;;;;;;;22.90;14.90;;;4.20;99.90;;;;;;4995585;28;20138;-78
2021/01/06 06:52:57;;;;;;;24.25;13.95;;;4.20;99.90;;;;;;5000135;28;20106;-80
2021/01/06 06:55:34;;;;;;;22.25;13.82;;;4.20;99.90;;;;;;5043106;23;20470;-78
2021/01/06 06:58:27;;;;;;;21.83;13.85;;;4.10;99.90;;;;;;5015938;28;20097;-79
2021/01/06 07:00:54;;;;;;;21.15;13.90;;;4.00;99.90;;;;;;5012072;28;20042;-79
2021/01/06 07:03:26;;;;;;;21.95;14.43;;;4.00;99.90;;;;;;5015322;28;20053;-80
2021/01/06 07:05:56;;;;;;;23.60;13.95;;;4.10;99.90;;;;;;4988163;28;20470;-78
2021/01/06 07:08:27;;;;;;;21.95;14.25;;;4.10;99.90;;;;;;4990824;28;20383;-80
2021/01/06 07:11:02;;;;;;;23.05;14.40;;;4.10;99.90;;;;;;4984341;28;20661;-80
2021/01/06 07:13:30;;;;;;;21.52;13.40;;;4.10;99.90;;;;;;4985026;28;20507;-77
2021/01/06 07:16:00;;;;;;;21.77;12.48;;;4.00;99.90;;;;;;4987452;28;20073;-79
2021/01/06 07:18:40;;;;;;;23.40;13.05;;;4.00;99.90;;;;;;5002576;28;20050;-80
2021/01/06 07:21:22;;;;;;;20.40;13.20;;;4.00;99.90;;;;;;4992032;28;20065;-79
2021/01/06 07:23:53;;;;;;;20.02;13.48;;;4.00;99.90;;;;;;4984740;28;20129;-79
2021/01/06 07:26:24;;;;;;;20.23;13.32;;;3.90;99.90;;;;;;4992063;28;20597;-78
2021/01/06 07:28:59;;;;;;;20.50;12.85;;;3.90;99.90;;;;;;4979266;28;20130;-81
2021/01/06 07:31:28;;;;;;;19.52;12.98;;;3.90;99.90;;;;;;4985714;28;20047;-78
2021/01/06 07:33:56;;;;;;;20.27;12.30;;;3.90;99.90;;;;;;4994329;28;20939;-80
2021/01/06 07:36:27;;;;;;;19.75;13.07;;;3.90;99.90;;;;;;4994170;28;20137;-78
2021/01/06 07:38:54;;;;;;;20.95;14.25;;;3.90;99.90;;;;;;4987604;28;20054;-78
2021/01/06 07:41:23;;;;;;;19.27;13.10;;;3.90;99.90;;;;;;4983925;28;20050;-79
2021/01/06 07:44:18;;;;;;;21.35;13.43;;;4.00;99.90;;;;;;4983896;28;20105;-82
2021/01/06 07:46:56;;;;;;;20.25;13.80;;;4.00;99.90;;;;;;4983857;28;20055;-79
2021/01/06 07:49:38;;;;;;;25.90;15.30;;;4.10;99.90;;;;;;4984471;28;20046;-78
2021/01/06 07:52:18;;;;;;;28.05;17.30;;;4.00;99.90;;;;;;4982367;28;20066;-80
2021/01/06 07:54:51;;;;;;;25.73;15.88;;;4.00;99.90;;;;;;4979590;28;20090;-81
2021/01/06 07:57:27;;;;;;;27.17;17.08;;;4.00;99.90;;;;;;4980785;28;20460;-80
2021/01/06 07:59:56;;;;;;;27.33;17.30;;;4.00;99.90;;;;;;4985388;28;20097;-80
2021/01/06 08:02:29;;;;;;;29.77;16.73;;;4.00;99.90;;;;;;4984348;28;20193;-80
2021/01/06 08:05:15;;;;;;;25.88;16.52;;;4.10;99.90;;;;;;4983389;28;20054;-79
2021/01/06 08:07:42;;;;;;;25.60;16.63;;;4.20;99.90;;;;;;4983157;28;20575;-80
2021/01/06 08:10:16;;;;;;;27.38;17.02;;;4.30;99.90;;;;;;4983913;28;20062;-78
2021/01/06 08:12:43;;;;;;;28.27;16.88;;;4.30;99.90;;;;;;4983583;28;20078;-81
2021/01/06 08:15:20;;;;;;;27.40;17.42;;;4.30;99.90;;;;;;4985014;28;20082;-81
2021/01/06 08:17:52;;;;;;;29.90;17.65;;;4.40;99.90;;;;;;4985594;28;20058;-80
2021/01/06 08:20:22;;;;;;;29.17;17.48;;;4.40;99.90;;;;;;4983526;28;20073;-81
2021/01/06 08:22:55;;;;;;;27.77;17.92;;;4.50;99.90;;;;;;4982037;28;20078;-81
2021/01/06 08:25:27;;;;;;;30.45;18.27;;;4.50;99.90;;;;;;4983206;28;20082;-81
2021/01/06 08:27:55;;;;;;;27.42;17.75;;;4.50;99.90;;;;;;4982588;28;20082;-80
2021/01/06 08:30:23;;;;;;;28.55;17.92;;;4.50;99.90;;;;;;4981106;28;20086;-79
2021/01/06 08:33:04;;;;;;;29.55;18.40;;;4.60;99.90;;;;;;4977987;28;20097;-80
2021/01/06 08:35:33;;;;;;;29.35;18.05;;;4.60;99.90;;;;;;4977437;28;20487;-80
2021/01/06 08:38:00;;;;;;;32.50;17.90;;;4.60;99.90;;;;;;4976693;28;20114;-78
2021/01/06 08:40:32;;;;;;;28.60;17.73;;;4.50;99.90;;;;;;4976161;28;20047;-80
2021/01/06 08:43:01;;;;;;;29.10;18.63;;;4.50;99.90;;;;;;4974005;28;20190;-79
2021/01/06 08:45:30;;;;;;;29.63;18.65;;;4.50;99.90;;;;;;4979515;28;20061;-81
2021/01/06 08:47:59;;;;;;;29.65;17.95;;;4.50;99.90;;;;;;4980350;28;20057;-78
2021/01/06 08:50:32;;;;;;;32.63;20.27;;;4.50;99.90;;;;;;4978972;28;20137;-80
2021/01/06 08:52:59;;;;;;;;;;;4.50;99.90;;;;;;4979379;28;20110;-79
2021/01/06 08:55:30;;;;;;;30.92;18.33;;;4.50;99.90;;;;;;4981212;28;19929;-80
2021/01/06 08:57:58;;;;;;;30.70;18.55;;;4.40;99.90;;;;;;4981818;28;20074;-80
2021/01/06 09:00:29;;;;;;;32.90;19.58;;;4.30;99.90;;;;;;4982872;28;20134;-79
2021/01/06 09:03:00;;;;;;;34.22;17.35;;;4.30;99.90;;;;;;4984022;28;20431;-81
2021/01/06 09:06:05;;;;;;;29.42;18.00;;;4.30;99.90;;;;;;4985415;28;20065;-82
2021/01/06 09:08:45;;;;;;;30.35;18.15;;;4.40;99.90;;;;;;4983903;28;20483;-79
2021/01/06 09:11:20;;;;;;;31.95;18.58;;;4.30;99.90;;;;;;4981290;28;20523;-80
2021/01/06 09:13:57;;;;;;;31.27;17.25;;;4.40;99.90;;;;;;4981377;28;20047;-80
2021/01/06 09:16:29;;;;;;;31.63;19.13;;;4.50;99.90;;;;;;4979015;28;20055;-78
2021/01/06 09:19:01;;;;;;;23.85;13.48;;;4.40;99.90;;;;;;4983756;28;20061;-80
2021/01/06 09:21:30;;;;;;;32.55;18.33;;;4.40;99.90;;;;;;4985094;28;20046;-80
2021/01/06 09:24:02;;;;;;;33.97;18.42;;;4.40;99.90;;;;;;4987780;28;20057;-81
2021/01/06 09:26:29;;;;;;;30.00;18.08;;;4.40;99.90;;;;;;4990998;28;20050;-81
2021/01/06 09:29:04;;;;;;;28.80;18.02;;;4.40;99.90;;;;;;4990924;28;20050;-81
2021/01/06 09:31:34;;;;;;;30.73;18.35;;;4.40;99.90;;;;;;4989711;28;20078;-79
2021/01/06 09:34:01;;;;;;;28.73;18.23;;;4.50;99.90;;;;;;4990276;28;20051;-81
2021/01/06 09:36:28;;;;;;;31.63;19.00;;;4.50;99.90;;;;;;4990986;28;20108;-80
2021/01/06 09:38:57;;;;;;;31.65;19.48;;;4.50;99.90;;;;;;4992126;28;20134;-82
2021/01/06 09:41:28;;;;;;;30.90;19.50;;;4.40;99.90;;;;;;4988321;28;20081;-81
2021/01/06 09:43:58;;;;;;;30.60;18.33;;;4.40;99.90;;;;;;4990888;28;20561;-82
2021/01/06 09:46:34;;;;;;;30.60;18.25;;;4.50;99.90;;;;;;4996734;28;20072;-81
2021/01/06 09:49:05;;;;;;;28.48;18.73;;;4.50;99.90;;;;;;5028650;28;20088;-82
2021/01/06 09:51:33;;;;;;;28.08;17.92;;;4.50;99.90;;;;;;5031010;28;20148;-82
2021/01/06 09:54:04;;;;;;;32.08;19.50;;;4.50;99.90;;;;;;5031867;28;20050;-82
2021/01/06 09:56:33;;;;;;;27.70;17.65;;;4.40;99.90;;;;;;5032620;28;20061;-83
2021/01/06 09:59:01;;;;;;;32.65;18.25;;;4.40;99.90;;;;;;5030661;28;20474;-81
2021/01/06 10:01:40;;;;;;;31.23;18.77;;;4.40;99.90;;;;;;5026531;28;20049;-81
2021/01/06 10:04:22;;;;;;;29.20;17.55;;;4.50;99.90;;;;;;5030004;28;20057;-81
2021/01/06 10:06:54;;;;;;;30.77;18.40;;;4.30;99.90;;;;;;5030542;28;20070;-82
2021/01/06 10:09:29;;;;;;;28.52;18.58;;;4.20;99.90;;;;;;5030633;28;20081;-81
2021/01/06 10:12:37;;;;;;;29.45;17.80;;;4.30;99.90;;;;;;5029854;28;20069;-81
2021/01/06 10:15:47;;;;;;;31.70;19.90;;;4.30;99.90;;;;;;5030156;28;20077;-83
2021/01/06 10:18:28;;;;;;;30.63;18.60;;;4.40;99.90;;;;;;5031692;28;20107;-82
2021/01/06 10:21:00;;;;;;;30.90;18.67;;;4.40;99.90;;;;;;5031688;28;20053;-82
2021/01/06 10:23:38;;;;;;;33.17;19.00;;;4.40;99.90;;;;;;5030590;28;20057;-81
2021/01/06 10:26:27;;;;;;;32.38;19.38;;;4.40;99.90;;;;;;5031024;28;20050;-80
2021/01/06 10:28:53;;;;;;;33.45;19.25;;;4.20;99.90;;;;;;5030799;28;20054;-82
2021/01/06 10:31:21;;;;;;;34.25;20.50;;;4.10;99.90;;;;;;5028856;28;20042;-81
2021/01/06 10:34:05;;;;;;;36.22;19.55;;;4.10;99.90;;;;;;5030142;28;20073;-82
2021/01/06 10:37:00;;;;;;;32.72;19.88;;;4.10;99.90;;;;;;5029234;28;20049;-81
2021/01/06 10:39:31;;;;;;;34.17;19.52;;;4.20;99.90;;;;;;5027663;28;20054;-80
2021/01/06 10:42:03;;;;;;;34.63;19.58;;;4.10;99.90;;;;;;5027997;28;20050;-83
2021/01/06 10:44:31;;;;;;;30.35;18.90;;;4.20;99.90;;;;;;5030096;28;20050;-82
2021/01/06 10:47:39;;;;;;;37.08;21.38;;;4.20;99.90;;;;;;5030264;28;20046;-81
2021/01/06 10:50:40;;;;;;;31.17;17.63;;;4.20;99.90;;;;;;5030783;28;20054;-83
2021/01/06 10:53:15;;;;;;;29.85;17.65;;;4.30;99.90;;;;;;5028714;28;20056;-81
2021/01/06 10:55:46;;;;;;;30.70;17.75;;;4.30;99.90;;;;;;5027774;28;20054;-81
2021/01/06 10:58:24;;;;;;;27.85;17.60;;;4.30;99.90;;;;;;5023761;28;20073;-79
2021/01/06 11:00:59;;;;;;;27.77;17.25;;;4.40;99.90;;;;;;5024773;28;20077;-82
2021/01/06 11:03:50;;;;;;;28.88;17.65;;;4.40;99.90;;;;;;5023890;28;20049;-78
2021/01/06 11:06:24;;;;;;;24.88;16.25;;;4.40;99.90;;;;;;5025321;28;20046;-80
2021/01/06 11:09:17;;;;;;;28.65;17.15;;;4.50;99.90;;;;;;5026052;28;20050;-81
2021/01/06 11:12:01;;;;;;;26.27;16.45;;;4.50;99.90;;;;;;5024672;28;20061;-79
2021/01/06 11:14:51;;;;;;;27.00;17.45;;;4.40;99.90;;;;;;5025588;28;20089;-82
2021/01/06 11:17:34;;;;;;;28.70;17.42;;;4.50;99.90;;;;;;5025894;28;20104;-79
2021/01/06 11:20:05;;;;;;;26.48;16.48;;;4.40;99.90;;;;;;5027514;28;20050;-81
2021/01/06 11:22:39;;;;;;;29.35;18.00;;;4.50;99.90;;;;;;5025284;28;20077;-82
2021/01/06 11:25:39;;;;;;;27.83;18.02;;;4.40;99.90;;;;;;5027485;28;20050;-82
2021/01/06 11:28:23;;;;;;;29.60;18.63;;;4.40;99.90;;;;;;5021125;28;20437;-80
2021/01/06 11:31:28;;;;;;;33.88;19.50;;;4.40;99.90;;;;;;5024686;28;20058;-82
2021/01/06 11:33:58;;;;;;;32.95;18.90;;;4.40;99.90;;;;;;5015120;28;20081;-83
2021/01/06 11:36:42;;;;;;;31.13;19.83;;;4.40;99.90;;;;;;5025624;28;20487;-83
2021/01/06 11:39:12;;;;;;;29.38;18.80;;;4.40;99.90;;;;;;5025429;28;20050;-82
2021/01/06 11:42:03;;;;;;;31.90;20.67;;;4.40;99.90;;;;;;5023561;28;20046;-80
2021/01/06 11:44:32;;;;;;;33.45;21.83;;;4.30;99.90;;;;;;5024503;28;20124;-82
2021/01/06 11:47:23;;;;;;;34.20;20.20;;;4.20;99.90;;;;;;5024492;28;20061;-81
2021/01/06 11:49:55;;;;;;;32.42;20.77;;;4.30;99.90;;;;;;5033589;28;20045;-82
2021/01/06 11:52:40;;;;;;;34.70;22.40;;;4.30;99.90;;;;;;5029383;28;20057;-79
2021/01/06 11:55:48;;;;;;;43.28;23.63;;;4.30;99.90;;;;;;5026839;28;20057;-82
2021/01/06 11:58:46;;;;;;;38.08;23.77;;;4.20;99.90;;;;;;5026638;28;20066;-81
2021/01/06 12:01:54;;;;;;;40.10;24.83;;;4.30;99.90;;;;;;5025049;28;20057;-82
2021/01/06 12:04:30;;;;;;;42.10;24.30;;;4.40;99.90;;;;;;5024385;28;20054;-82
2021/01/06 12:07:25;;;;;;;41.75;25.60;;;4.40;99.90;;;;;;5025459;28;20054;-81
2021/01/06 12:10:00;;;;;;;46.10;26.30;;;4.30;99.90;;;;;;5025360;28;20525;-82
2021/01/06 12:12:40;;;;;;;45.42;25.27;;;4.30;99.90;;;;;;5023545;28;20077;-80
2021/01/06 12:15:27;;;;;;;49.03;27.95;;;4.30;99.90;;;;;;5026620;28;20073;-82
2021/01/06 12:17:58;;;;;;;45.83;26.42;;;4.30;99.90;;;;;;5027173;28;20050;-79
2021/01/06 12:20:27;;;;;;;48.83;27.20;;;4.30;99.90;;;;;;5026488;28;20058;-83
2021/01/06 12:23:19;;;;;;;45.50;25.92;;;4.20;99.90;;;;;;5020993;28;20070;-81
2021/01/06 12:25:49;;;;;;;44.42;27.05;;;4.30;99.90;;;;;;5027547;28;20045;-78
2021/01/06 12:28:29;;;;;;;47.08;26.65;;;4.30;99.90;;;;;;5029373;28;20050;-80
2021/01/06 12:31:13;;;;;;;46.85;28.00;;;4.40;99.90;;;;;;5028923;28;20106;-83
2021/01/06 12:33:45;;;;;;;46.67;26.85;;;4.20;99.90;;;;;;5029889;28;20053;-80
2021/01/06 12:36:25;;;;;;;48.28;27.90;;;4.30;99.90;;;;;;5030954;28;20045;-83
2021/01/06 12:39:16;;;;;;;47.33;28.10;;;4.30;99.90;;;;;;5020571;28;20403;-82
2021/01/06 12:41:52;;;;;;;44.80;26.33;;;4.40;99.90;;;;;;5011171;28;20046;-80
2021/01/06 12:44:22;;;;;;;47.10;28.77;;;4.30;99.90;;;;;;5009781;28;20046;-80
2021/01/06 12:46:57;;;;;;;50.15;28.13;;;4.40;99.90;;;;;;5011541;28;20077;-80
2021/01/06 12:50:04;;;;;;;49.80;28.27;;;4.40;99.90;;;;;;5015173;28;20403;-83
2021/01/06 12:52:42;;;;;;;44.53;26.80;;;4.40;99.90;;;;;;5014350;28;20084;-84
2021/01/06 12:55:19;;;;;;;49.30;29.02;;;4.30;99.90;;;;;;5064834;23;20046;-83
2021/01/06 12:57:50;;;;;;;50.60;29.08;;;4.20;99.90;;;;;;5005919;28;20050;-82
2021/01/06 13:00:29;;;;;;;43.35;26.15;;;4.20;99.90;;;;;;4999938;28;20060;-82
2021/01/06 13:03:29;;;;;;;49.13;27.63;;;4.30;99.90;;;;;;4999589;28;20058;-83
2021/01/06 13:06:00;;;;;;;45.88;26.88;;;4.40;99.90;;;;;;4984890;28;20099;-83
2021/01/06 13:08:49;;;;;;;43.53;26.30;;;4.40;99.90;;;;;;4982419;28;20078;-83
2021/01/06 13:11:24;;;;;;;42.70;26.45;;;4.40;99.90;;;;;;4981694;28;20134;-83
2021/01/06 13:14:09;;;;;;;42.28;24.30;;;4.40;99.90;;;;;;4989550;28;20054;-83
2021/01/06 13:16:41;;;;;;;41.50;24.90;;;4.50;99.90;;;;;;4989897;28;20047;-83
2021/01/06 13:19:19;;;;;;;36.53;23.15;;;4.50;99.90;;;;;;4988916;28;20492;-83
2021/01/06 13:22:00;;;;;;;39.17;23.80;;;4.60;99.90;;;;;;4982443;28;20109;-83
2021/01/06 13:24:31;;;;;;;39.53;23.63;;;4.60;99.90;;;;;;4980518;28;20070;-83
2021/01/06 13:27:01;;;;;;;45.40;26.55;;;4.70;99.90;;;;;;4981482;28;20070;-83
2021/01/06 13:29:36;;;;;;;40.22;24.42;;;4.70;99.90;;;;;;4980600;28;20073;-84
2021/01/06 13:32:12;;;;;;;43.90;26.35;;;4.80;99.90;;;;;;4980076;28;20099;-83
2021/01/06 13:34:45;;;;;;;40.58;25.33;;;4.70;99.90;;;;;;4981571;28;20050;-81
2021/01/06 13:37:34;;;;;;;41.17;25.70;;;4.70;99.90;;;;;;4982196;28;20047;-83
2021/01/06 13:40:13;;;;;;;43.65;26.35;;;4.80;99.90;;;;;;4981391;28;20058;-83